createdAt,value
2019-05-29T00:14:34.364Z,10.51
2019-05-29T00:34:43.725Z,9.63
2019-05-29T00:54:53.104Z,11.32
2019-05-29T01:15:02.426Z,9.39
2019-05-29T01:35:11.781Z,11.36
2019-05-29T01:55:21.742Z,10.09
2019-05-29T02:15:33.490Z,10.35
2019-05-29T02:35:39.073Z,8.94
2019-05-29T02:55:50.754Z,9.18
2019-05-29T03:16:08.746Z,9.33
2019-05-29T03:35:51.706Z,8.71
2019-05-29T03:56:01.003Z,9.71
2019-05-29T04:16:10.520Z,12.44
2019-05-29T04:36:19.858Z,10.42
2019-05-29T04:56:29.291Z,13.38
2019-05-29T05:16:39.884Z,15.26
2019-05-29T05:36:47.615Z,13.58
2019-05-29T05:56:57.029Z,15.01
2019-05-29T06:17:09.992Z,10.89
2019-05-29T06:37:07.908Z,15.94
2019-05-29T06:57:17.563Z,13.40
2019-05-29T07:17:27.092Z,14.61
2019-05-29T07:37:37.684Z,13.92
2019-05-29T07:57:46.884Z,10.16
2019-05-29T08:17:56.756Z,10.52
2019-05-29T08:37:56.408Z,10.61
2019-05-29T08:58:06.010Z,11.59
2019-05-29T09:18:15.657Z,11.01
2019-05-29T09:38:27.574Z,9.40
2019-05-29T09:58:27.067Z,10.89
2019-05-29T10:18:36.459Z,13.10
2019-05-29T10:38:46.508Z,12.48
2019-05-29T10:58:59.617Z,16.09
2019-05-29T11:19:05.788Z,12.97
2019-05-29T11:39:13.002Z,11.83
2019-05-29T11:59:22.606Z,10.68
2019-05-29T12:59:44.343Z,16.37
2019-05-29T13:19:59.415Z,16.97
2019-05-29T13:39:45.856Z,11.80
2019-05-29T13:59:55.498Z,12.99
2019-05-29T14:20:05.114Z,12.97
2019-05-29T14:40:14.533Z,14.31
2019-05-29T15:00:25.688Z,14.57
2019-05-29T15:20:33.258Z,4.18
2019-05-29T15:40:45.151Z,6.88
2019-05-29T16:00:44.867Z,4.72
2019-05-29T16:20:54.204Z,4.19
2019-05-29T16:41:05.007Z,10.92
2019-05-29T17:01:06.774Z,7.79
2019-05-29T17:21:06.280Z,6.63
2019-05-29T17:41:17.178Z,6.31
2019-05-29T18:01:30.576Z,4.13
2019-05-29T18:21:26.113Z,3.17
2019-05-29T18:41:37.850Z,2.77
2019-05-29T19:01:38.899Z,1.88
2019-05-29T19:21:41.540Z,1.89
2019-05-29T19:41:41.290Z,1.75
2019-05-29T20:01:50.766Z,3.16
2019-05-29T20:22:00.437Z,4.88
2019-05-29T20:42:13.110Z,3.71
2019-05-29T21:02:11.180Z,5.15
2019-05-29T21:22:23.117Z,5.36
2019-05-29T21:42:22.526Z,8.23
2019-05-29T22:02:38.247Z,5.38
2019-05-29T22:22:36.403Z,5.58
2019-05-29T22:42:45.719Z,6.06
2019-05-29T23:02:56.117Z,8.67
2019-05-29T23:23:03.970Z,6.05
2019-05-29T23:43:15.590Z,6.66
